This is the latest recevied weather packets stored in our database for station/object F4DVI. If no packets are shown the sender has not sent any weather packets the latest 10 day(s).
| Time | Temp. | Humidity | Pressure | Rain* | Wind** | Luminosity | Snow |
|---|---|---|---|---|---|---|---|
| 1777723720 | 17.22° C | 67% | 0 hPa | 0.51 mm | - | - | - |
| 1777723420 | 16.67° C | 67% | 0 hPa | 0.51 mm | - | - | - |
| 1777723120 | 16.67° C | 67% | 0 hPa | 0.51 mm | - | - | - |
| 1777722820 | 16.67° C | 66% | 0 hPa | 0.51 mm | - | - | - |
| 1777722520 | 17.22° C | 65% | 0 hPa | 0.51 mm | - | - | - |
| 1777722220 | 17.22° C | 63% | 0 hPa | 0.51 mm | - | - | - |
| 1777721920 | 17.78° C | 60% | 0 hPa | 0.25 mm | - | - | - |
| 1777721620 | 18.33° C | 56% | 0 hPa | 0.25 mm | - | - | - |
| 1777721320 | 19.44° C | 52% | 0 hPa | 0 mm | - | - | - |
| 1777721020 | 20° C | 49% | 0 hPa | 0 mm | - | - | - |
| 1777720720 | 20.56° C | 47% | 0 hPa | 0 mm | - | - | - |
| 1777720420 | 21.11° C | 46% | 0 hPa | 0 mm | - | - | - |
| 1777720120 | 21.11° C | 45% | 0 hPa | 0 mm | - | - | - |
| 1777719820 | 21.67° C | 44% | 0 hPa | 0 mm | - | - | - |
| 1777719520 | 22.22° C | 44% | 0 hPa | 0 mm | - | - | - |
| 1777719220 | 22.78° C | 43% | 0 hPa | 0 mm | - | - | - |
| 1777718920 | 22.78° C | 43% | 0 hPa | 0 mm | - | - | - |
| 1777718620 | 23.33° C | 42% | 0 hPa | 0 mm | - | - | - |
| 1777718320 | 23.89° C | 41% | 0 hPa | 0 mm | - | - | - |
| 1777718020 | 24.44° C | 40% | 0 hPa | 0 mm | - | - | - |
| 1777717720 | 24.44° C | 39% | 0 hPa | 0 mm | - | - | - |
| 1777717420 | 24.44° C | 39% | 0 hPa | 0 mm | - | - | - |
| 1777717120 | 24.44° C | 41% | 0 hPa | 0 mm | - | - | - |
| 1777716820 | 23.89° C | 41% | 0 hPa | 0 mm | - | - | - |
| 1777716520 | 23.33° C | 41% | 0 hPa | 0 mm | - | - | - |
* Rain latest hour (hover to see other rain measurements)
** Current wind speed in m/s (hover to see current wind gust speed)